createdAt,value
2018-06-09T00:02:27.454Z,101261.16
2018-06-09T00:04:55.849Z,101262.02
2018-06-09T00:07:24.227Z,101263.73
2018-06-09T00:09:52.620Z,101264.14
2018-06-09T00:12:20.990Z,101263.70
2018-06-09T00:14:49.386Z,101259.77
2018-06-09T00:17:17.762Z,101262.40
2018-06-09T00:19:46.162Z,101262.82
2018-06-09T00:22:14.535Z,101264.57
2018-06-09T00:24:42.917Z,101261.07
2018-06-09T00:27:11.314Z,101256.27
2018-06-09T00:29:39.688Z,101256.69
2018-06-09T00:32:08.095Z,101259.30
2018-06-09T00:34:40.638Z,101258.42
2018-06-09T00:37:09.078Z,101257.53
2018-06-09T00:39:37.451Z,101259.28
2018-06-09T00:42:05.852Z,101259.28
2018-06-09T00:44:34.223Z,101263.20
2018-06-09T00:47:02.642Z,101259.28
2018-06-09T00:49:31.014Z,101263.63
2018-06-09T00:51:59.414Z,101253.61
2018-06-09T00:54:27.782Z,101257.97
2018-06-09T00:56:56.182Z,101257.55
2018-06-09T00:59:24.549Z,101266.69
2018-06-09T01:01:52.971Z,101263.63
2018-06-09T01:04:21.338Z,101268.88
2018-06-09T01:06:49.786Z,101268.01
2018-06-09T01:09:18.150Z,101265.38
2018-06-09T01:11:46.541Z,101266.69
2018-06-09T01:14:14.922Z,101263.65
2018-06-09T01:16:43.298Z,101262.78
2018-06-09T01:19:11.707Z,101258.40
2018-06-09T01:21:40.087Z,101258.41
2018-06-09T01:24:08.494Z,101254.91
2018-06-09T01:26:36.862Z,101264.47
2018-06-09T01:29:05.253Z,101261.85
2018-06-09T01:31:33.619Z,101260.11
2018-06-09T01:34:02.010Z,101256.59
2018-06-09T01:36:30.382Z,101263.11
2018-06-09T01:38:58.785Z,101260.06
2018-06-09T01:41:27.162Z,101265.27
2018-06-09T01:43:58.194Z,101269.61
2018-06-09T01:46:26.552Z,101272.23
2018-06-09T01:48:54.947Z,101273.95
2018-06-09T01:51:23.305Z,101274.40
2018-06-09T01:53:51.717Z,101275.69
2018-06-09T01:56:20.075Z,101279.58
2018-06-09T01:58:48.429Z,101276.97
2018-06-09T02:01:16.834Z,101277.82
2018-06-09T02:03:45.218Z,101284.34
2018-06-09T02:06:13.603Z,101285.63
2018-06-09T02:08:42.114Z,101287.81
2018-06-09T02:11:10.490Z,101291.27
2018-06-09T02:13:38.854Z,101289.52
2018-06-09T02:16:07.238Z,101283.86
2018-06-09T02:18:35.610Z,101284.73
2018-06-09T02:21:04.003Z,101288.20
2018-06-09T02:23:32.367Z,101288.67
2018-06-09T02:26:00.758Z,101294.33
2018-06-09T02:28:29.122Z,101291.27
2018-06-09T02:30:57.503Z,101289.11
2018-06-09T02:33:25.927Z,101283.84
2018-06-09T02:35:54.318Z,101295.59
2018-06-09T02:38:22.673Z,101293.80
2018-06-09T02:40:51.078Z,101287.25
2018-06-09T02:43:19.447Z,101287.23
2018-06-09T02:45:47.807Z,101288.11
2018-06-09T02:48:16.194Z,101288.94
2018-06-09T02:50:44.571Z,101290.69
2018-06-09T02:53:12.969Z,101294.14
2018-06-09T02:55:41.351Z,101292.84
2018-06-09T02:58:09.742Z,101289.38
2018-06-09T03:00:38.110Z,101283.28
2018-06-09T03:03:06.685Z,101286.79
2018-06-09T03:05:35.046Z,101285.05
2018-06-09T03:08:03.436Z,101290.73
2018-06-09T03:10:31.811Z,101288.58
2018-06-09T03:13:00.195Z,101292.94
2018-06-09T03:15:28.569Z,101294.72
2018-06-09T03:17:56.955Z,101311.27
2018-06-09T03:20:25.331Z,101309.09
2018-06-09T03:22:53.709Z,101297.36
2018-06-09T03:25:22.087Z,101293.45
2018-06-09T03:27:50.469Z,101296.94
2018-06-09T03:30:19.438Z,101293.89
2018-06-09T03:32:47.843Z,101286.50
2018-06-09T03:35:16.218Z,101289.97
2018-06-09T03:37:44.583Z,101291.31
2018-06-09T03:40:13.012Z,101288.25
2018-06-09T03:42:41.359Z,101289.59
2018-06-09T03:45:09.754Z,101283.55
2018-06-09T03:47:38.123Z,101284.42
2018-06-09T03:50:06.533Z,101285.77
2018-06-09T03:52:34.893Z,101282.33
2018-06-09T03:55:03.286Z,101283.28
2018-06-09T03:57:31.746Z,101290.33
2018-06-09T04:00:00.151Z,101290.39
2018-06-09T04:02:28.547Z,101289.55
2018-06-09T04:04:56.942Z,101286.48
2018-06-09T04:07:25.310Z,101291.29
2018-06-09T04:09:53.705Z,101294.31
2018-06-09T04:12:22.078Z,101299.97
2018-06-09T04:14:50.438Z,101292.56
2018-06-09T04:17:19.454Z,101292.55
2018-06-09T04:19:47.826Z,101288.11
2018-06-09T04:22:16.210Z,101291.09
2018-06-09T04:24:44.574Z,101294.06
2018-06-09T04:27:12.968Z,101287.40
2018-06-09T04:29:41.338Z,101287.28
2018-06-09T04:32:09.815Z,101293.28
2018-06-09T04:34:38.178Z,101294.85
2018-06-09T04:37:06.584Z,101294.26
2018-06-09T04:39:34.958Z,101289.30
2018-06-09T04:42:03.354Z,101283.88
2018-06-09T04:44:31.727Z,101282.38
2018-06-09T04:47:00.143Z,101284.78
2018-06-09T04:49:28.519Z,101283.36
2018-06-09T04:51:56.897Z,101279.96
2018-06-09T04:54:25.293Z,101278.30
2018-06-09T04:56:53.665Z,101271.49
2018-06-09T04:59:22.059Z,101275.62
2018-06-09T05:01:50.445Z,101269.62
2018-06-09T05:04:18.833Z,101269.75
2018-06-09T05:06:47.215Z,101277.63
2018-06-09T05:09:15.605Z,101271.36
2018-06-09T05:11:43.991Z,101267.23
2018-06-09T05:14:12.390Z,101263.93
2018-06-09T05:16:40.762Z,101261.05
2018-06-09T05:19:09.154Z,101264.91
2018-06-09T05:21:37.527Z,101266.52
2018-06-09T05:24:06.134Z,101261.64
2018-06-09T05:26:34.507Z,101270.80
2018-06-09T05:29:02.917Z,101257.59
2018-06-09T05:31:31.287Z,101256.23
2018-06-09T05:33:59.650Z,101256.63
2018-06-09T05:36:28.038Z,101263.59
2018-06-09T05:38:56.410Z,101258.30
2018-06-09T05:41:24.807Z,101262.15
2018-06-09T05:43:53.182Z,101258.53
2018-06-09T05:46:21.575Z,101256.23
2018-06-09T05:48:49.942Z,101252.62
2018-06-09T05:51:18.457Z,101248.59
2018-06-09T05:53:46.836Z,101254.14
2018-06-09T05:56:15.237Z,101255.77
2018-06-09T05:58:43.607Z,101245.95
2018-06-09T06:01:12.027Z,101241.36
2018-06-09T06:03:40.391Z,101240.80
2018-06-09T06:06:08.786Z,101247.69
2018-06-09T06:08:37.146Z,101253.20
2018-06-09T06:11:05.562Z,101259.22
2018-06-09T06:13:33.930Z,101256.84
2018-06-09T06:16:02.294Z,101257.63
2018-06-09T06:18:30.679Z,101261.42
2018-06-09T06:20:59.047Z,101267.38
2018-06-09T06:23:27.430Z,101261.88
2018-06-09T06:25:55.806Z,101265.58
2018-06-09T06:28:24.190Z,101268.45
2018-06-09T06:30:52.558Z,101273.01
2018-06-09T06:33:20.942Z,101276.70
2018-06-09T06:35:49.310Z,101272.91
2018-06-09T06:38:17.695Z,101277.02
2018-06-09T06:40:46.067Z,101275.09
2018-06-09T06:43:14.455Z,101272.28
2018-06-09T06:45:42.823Z,101267.16
2018-06-09T06:48:11.217Z,101279.18
2018-06-09T06:50:39.668Z,101280.66
2018-06-09T06:53:08.066Z,101280.85
2018-06-09T06:55:36.427Z,101288.56
2018-06-09T06:58:04.810Z,101291.86
2018-06-09T07:00:33.194Z,101287.96
2018-06-09T07:03:01.588Z,101286.77
2018-06-09T07:05:29.993Z,101286.45
2018-06-09T07:07:58.372Z,101290.11
2018-06-09T07:10:26.771Z,101285.85
2018-06-09T07:12:55.129Z,101291.09
2018-06-09T07:15:23.510Z,101282.78
2018-06-09T07:17:51.875Z,101286.31
2018-06-09T07:20:20.258Z,101281.95
2018-06-09T07:22:48.622Z,101283.70
2018-06-09T07:25:17.005Z,101284.67
2018-06-09T07:27:45.374Z,101289.58
2018-06-09T07:30:13.767Z,101296.70
2018-06-09T07:32:42.121Z,101293.63
2018-06-09T07:35:10.552Z,101295.51
2018-06-09T07:37:38.892Z,101293.41
2018-06-09T07:40:07.282Z,101297.93
2018-06-09T07:42:35.735Z,101299.84
2018-06-09T07:45:04.134Z,101294.65
2018-06-09T07:47:32.508Z,101287.99
2018-06-09T07:50:00.875Z,101294.15
2018-06-09T07:52:29.264Z,101285.84
2018-06-09T07:54:57.620Z,101287.13
2018-06-09T07:57:26.022Z,101286.75
2018-06-09T07:59:54.394Z,101290.35
2018-06-09T08:02:23.071Z,101288.20
2018-06-09T08:04:51.448Z,101285.19
2018-06-09T08:07:19.846Z,101282.55
2018-06-09T08:09:48.223Z,101287.28
2018-06-09T08:12:16.615Z,101285.78
2018-06-09T08:14:44.981Z,101286.08
2018-06-09T08:17:13.370Z,101290.80
2018-06-09T08:19:41.767Z,101289.39
2018-06-09T08:22:10.163Z,101295.03
2018-06-09T08:24:38.534Z,101294.88
2018-06-09T08:27:06.988Z,101287.73
2018-06-09T08:29:35.358Z,101286.71
2018-06-09T08:32:03.774Z,101286.30
2018-06-09T08:34:32.171Z,101281.51
2018-06-09T08:37:00.551Z,101283.81
2018-06-09T08:39:28.952Z,101295.12
2018-06-09T08:41:57.352Z,101288.45
2018-06-09T08:44:25.740Z,101287.00
2018-06-09T08:46:54.125Z,101282.38
2018-06-09T08:49:22.589Z,101282.11
2018-06-09T08:51:50.948Z,101285.97
2018-06-09T08:54:19.346Z,101280.27
2018-06-09T08:56:47.740Z,101285.13
2018-06-09T08:59:16.134Z,101288.27
2018-06-09T09:01:44.525Z,101292.22
2018-06-09T09:04:12.918Z,101285.64
2018-06-09T09:06:41.290Z,101287.45
2018-06-09T09:09:09.861Z,101282.13
2018-06-09T09:11:38.346Z,101284.09
2018-06-09T09:14:06.734Z,101284.94
2018-06-09T09:16:35.176Z,101279.65
2018-06-09T09:19:03.543Z,101277.13
2018-06-09T09:21:31.919Z,101273.67
2018-06-09T09:24:00.316Z,101272.38
2018-06-09T09:26:28.684Z,101270.67
2018-06-09T09:28:57.067Z,101275.50
2018-06-09T09:31:25.459Z,101270.91
2018-06-09T09:33:53.819Z,101268.09
2018-06-09T09:36:22.212Z,101267.49
2018-06-09T09:38:50.595Z,101266.45
2018-06-09T09:41:19.001Z,101263.47
2018-06-09T09:43:47.369Z,101261.74
2018-06-09T09:46:15.758Z,101260.52
2018-06-09T09:48:44.145Z,101262.02
2018-06-09T09:51:12.579Z,101266.09
2018-06-09T09:53:40.987Z,101269.77
2018-06-09T09:56:09.387Z,101275.25
2018-06-09T09:58:37.778Z,101270.73
2018-06-09T10:01:06.187Z,101263.46
2018-06-09T10:03:34.563Z,101265.30
2018-06-09T10:06:03.135Z,101267.02
2018-06-09T10:08:31.506Z,101252.23
2018-06-09T10:10:59.899Z,101254.80
2018-06-09T10:13:28.277Z,101256.95
2018-06-09T10:15:56.683Z,101252.53
2018-06-09T10:18:25.048Z,101253.80
2018-06-09T10:20:53.423Z,101254.28
2018-06-09T10:23:21.818Z,101255.22
2018-06-09T10:25:50.187Z,101250.99
2018-06-09T10:28:18.578Z,101245.83
2018-06-09T10:30:46.985Z,101249.92
2018-06-09T10:33:15.373Z,101248.30
2018-06-09T10:35:43.747Z,101251.91
2018-06-09T10:38:12.196Z,101248.31
2018-06-09T10:40:40.566Z,101241.67
2018-06-09T10:43:09.159Z,101236.50
2018-06-09T10:45:37.517Z,101229.19
2018-06-09T10:48:05.966Z,101233.98
2018-06-09T10:50:34.306Z,101240.11
2018-06-09T10:53:02.690Z,101229.29
2018-06-09T10:55:31.062Z,101228.50
2018-06-09T10:57:59.456Z,101227.80
2018-06-09T11:00:27.817Z,101229.70
2018-06-09T11:02:56.230Z,101221.25
2018-06-09T11:05:24.598Z,101219.58
2018-06-09T11:07:52.987Z,101213.81
2018-06-09T11:10:21.358Z,101214.03
2018-06-09T11:12:49.775Z,101219.45
2018-06-09T11:15:18.155Z,101220.58
2018-06-09T11:17:46.522Z,101215.48
2018-06-09T11:20:14.911Z,101212.22
2018-06-09T11:22:43.283Z,101203.77
2018-06-09T11:25:11.686Z,101205.23
2018-06-09T11:27:40.062Z,101199.11
2018-06-09T11:30:08.503Z,101201.80
2018-06-09T11:32:36.915Z,101198.80
2018-06-09T11:35:05.326Z,101207.39
2018-06-09T11:37:33.762Z,101199.87
2018-06-09T11:40:02.160Z,101195.91
2018-06-09T11:42:30.527Z,101202.20
2018-06-09T11:44:58.922Z,101202.35
2018-06-09T11:47:27.303Z,101198.50
2018-06-09T11:49:55.695Z,101196.44
2018-06-09T11:52:24.068Z,101185.02
2018-06-09T11:54:52.441Z,101183.84
2018-06-09T11:57:20.855Z,101184.38
2018-06-09T11:59:49.225Z,101178.81
2018-06-09T12:02:17.651Z,101187.98
2018-06-09T12:04:46.031Z,101173.31
2018-06-09T12:07:14.447Z,101168.16
2018-06-09T12:09:42.829Z,101167.58
2018-06-09T12:12:11.230Z,101164.56
2018-06-09T12:14:39.606Z,101173.91
2018-06-09T12:17:08.026Z,101161.85
2018-06-09T12:19:36.410Z,101166.90
2018-06-09T12:22:04.806Z,101163.39
2018-06-09T12:24:33.191Z,101162.58
2018-06-09T12:27:01.599Z,101164.20
2018-06-09T12:29:29.983Z,101160.13
2018-06-09T12:31:58.392Z,101152.33
2018-06-09T12:34:26.771Z,101158.81
2018-06-09T12:36:55.195Z,101151.37
2018-06-09T12:39:23.583Z,101157.14
2018-06-09T12:41:52.003Z,101153.62
2018-06-09T12:44:20.387Z,101153.03
2018-06-09T12:46:48.836Z,101152.17
2018-06-09T12:49:17.227Z,101152.28
2018-06-09T12:51:47.269Z,101147.16
2018-06-09T12:54:15.670Z,101142.39
2018-06-09T12:56:44.042Z,101146.32
2018-06-09T12:59:12.437Z,101142.78
2018-06-09T13:01:40.839Z,101138.61
2018-06-09T13:04:09.242Z,101135.58
2018-06-09T13:06:37.626Z,101131.70
2018-06-09T13:09:07.482Z,101131.82
2018-06-09T13:11:35.903Z,101126.25
2018-06-09T13:14:04.321Z,101123.60
2018-06-09T13:16:32.730Z,101117.02
2018-06-09T13:19:01.132Z,101122.41
2018-06-09T13:21:29.521Z,101118.63
2018-06-09T13:23:57.911Z,101117.43
2018-06-09T13:26:26.274Z,101117.27
2018-06-09T13:28:54.675Z,101113.69
2018-06-09T13:31:23.516Z,101123.55
2018-06-09T13:33:51.938Z,101116.22
2018-06-09T13:36:20.457Z,101121.80
2018-06-09T13:38:48.725Z,101112.23
2018-06-09T13:41:17.147Z,101106.75
2018-06-09T13:43:45.534Z,101109.86
2018-06-09T13:46:13.934Z,101106.48
2018-06-09T13:48:42.412Z,101107.39
2018-06-09T13:51:10.805Z,101108.66
2018-06-09T13:53:39.187Z,101102.97
2018-06-09T13:56:07.588Z,101101.76
2018-06-09T13:58:35.969Z,101100.51
2018-06-09T14:01:04.367Z,101096.14
2018-06-09T14:03:32.815Z,101090.17
2018-06-09T14:06:01.220Z,101092.81
2018-06-09T14:08:29.599Z,101089.63
2018-06-09T14:10:58.052Z,101088.03
2018-06-09T14:13:26.410Z,101082.78
2018-06-09T14:15:54.802Z,101080.42
2018-06-09T14:18:23.185Z,101076.54
2018-06-09T14:20:51.584Z,101075.34
2018-06-09T14:23:19.958Z,101075.02
2018-06-09T14:25:48.361Z,101071.41
2018-06-09T14:28:16.736Z,101074.03
2018-06-09T14:30:45.123Z,101072.16
2018-06-09T14:33:13.522Z,101070.06
2018-06-09T14:35:41.906Z,101070.85
2018-06-09T14:38:10.308Z,101069.27
2018-06-09T14:40:38.687Z,101076.98
2018-06-09T14:43:07.089Z,101079.58
2018-06-09T14:45:35.467Z,101078.85
2018-06-09T14:48:03.869Z,101081.00
2018-06-09T14:50:32.242Z,101073.98
2018-06-09T14:53:00.646Z,101073.41
2018-06-09T14:55:29.017Z,101067.38
2018-06-09T14:57:57.409Z,101070.94
2018-06-09T15:00:25.782Z,101068.76
2018-06-09T15:02:54.202Z,101059.40
2018-06-09T15:05:22.582Z,101060.27
2018-06-09T15:07:50.981Z,101063.95
2018-06-09T15:10:20.099Z,101060.91
2018-06-09T15:12:48.543Z,101058.48
2018-06-09T15:15:16.923Z,101056.64
2018-06-09T15:17:45.302Z,101056.25
2018-06-09T15:20:13.710Z,101052.35
2018-06-09T15:22:42.135Z,101058.82
2018-06-09T15:25:10.510Z,101054.05
2018-06-09T15:27:38.890Z,101049.00
2018-06-09T15:30:07.286Z,101053.61
2018-06-09T15:32:35.664Z,101057.75
2018-06-09T15:35:04.075Z,101055.66
2018-06-09T15:37:32.449Z,101039.66
2018-06-09T15:40:00.845Z,101044.05
2018-06-09T15:42:29.226Z,101040.16
2018-06-09T15:44:57.622Z,101040.62
2018-06-09T15:47:26.004Z,101040.16
2018-06-09T15:49:54.394Z,101037.33
2018-06-09T15:52:22.774Z,101034.54
2018-06-09T15:54:51.239Z,101032.34
2018-06-09T15:57:19.623Z,101035.90
2018-06-09T15:59:48.045Z,101036.41
2018-06-09T16:02:16.438Z,101034.61
2018-06-09T16:04:45.785Z,101036.45
2018-06-09T16:07:14.178Z,101032.92
2018-06-09T16:09:42.555Z,101032.58
2018-06-09T16:12:10.962Z,101034.03
2018-06-09T16:14:39.335Z,101030.00
2018-06-09T16:17:07.731Z,101030.13
2018-06-09T16:19:36.111Z,101035.73
2018-06-09T16:22:04.847Z,101047.47
2018-06-09T16:24:33.226Z,101040.27
2018-06-09T16:27:01.642Z,101036.16
2018-06-09T16:29:30.063Z,101030.56
2018-06-09T16:31:58.449Z,101027.16
2018-06-09T16:34:26.832Z,101026.19
2018-06-09T16:36:55.236Z,101029.64
2018-06-09T16:39:23.612Z,101031.81
2018-06-09T16:41:52.013Z,101039.26
2018-06-09T16:44:20.383Z,101039.33
2018-06-09T16:46:48.783Z,101043.56
2018-06-09T16:49:18.281Z,101035.55
2018-06-09T16:51:46.709Z,101047.45
2018-06-09T16:54:15.091Z,101044.76
2018-06-09T16:56:43.468Z,101046.87
2018-06-09T16:59:11.857Z,101044.67
2018-06-09T17:01:40.253Z,101055.98
2018-06-09T17:04:08.667Z,101052.44
2018-06-09T17:06:37.051Z,101051.38
2018-06-09T17:09:08.141Z,101044.78
2018-06-09T17:11:36.551Z,101052.02
2018-06-09T17:14:05.230Z,101051.77
2018-06-09T17:16:33.612Z,101054.21
2018-06-09T17:19:02.115Z,101054.56
2018-06-09T17:21:30.523Z,101060.33
2018-06-09T17:23:58.919Z,101059.94
2018-06-09T17:26:27.326Z,101060.34
2018-06-09T17:28:55.727Z,101055.59
2018-06-09T17:31:24.100Z,101060.00
2018-06-09T17:33:52.494Z,101057.16
2018-06-09T17:36:20.850Z,101068.69
2018-06-09T17:38:49.245Z,101067.20
2018-06-09T17:41:17.614Z,101068.78
2018-06-09T17:43:46.007Z,101074.66
2018-06-09T17:46:14.391Z,101076.26
2018-06-09T17:48:42.811Z,101074.92
2018-06-09T17:51:11.230Z,101072.95
2018-06-09T17:53:39.587Z,101073.82
2018-06-09T17:56:08.002Z,101081.20
2018-06-09T17:58:36.383Z,101078.52
2018-06-09T18:01:04.779Z,101083.92
2018-06-09T18:03:33.196Z,101092.19
2018-06-09T18:06:01.602Z,101088.88
2018-06-09T18:08:29.983Z,101085.41
2018-06-09T18:10:58.378Z,101088.47
2018-06-09T18:13:26.752Z,101089.27
2018-06-09T18:15:55.151Z,101092.86
2018-06-09T18:18:23.535Z,101096.73
2018-06-09T18:20:51.946Z,101101.59
2018-06-09T18:23:20.333Z,101095.81
2018-06-09T18:25:48.722Z,101094.75
2018-06-09T18:28:17.095Z,101097.70
2018-06-09T18:30:45.481Z,101097.47
2018-06-09T18:33:13.857Z,101104.08
2018-06-09T18:35:42.253Z,101103.93
2018-06-09T18:38:10.634Z,101106.77
2018-06-09T18:40:39.085Z,101105.06
2018-06-09T18:43:07.471Z,101102.66
2018-06-09T18:45:35.847Z,101101.20
2018-06-09T18:48:04.251Z,101104.70
2018-06-09T18:50:32.643Z,101096.62
2018-06-09T18:53:01.044Z,101095.63
2018-06-09T18:55:29.410Z,101095.53
2018-06-09T18:57:57.811Z,101097.66
2018-06-09T19:00:26.198Z,101098.91
2018-06-09T19:02:54.623Z,101104.91
2018-06-09T19:05:22.992Z,101098.06
2018-06-09T19:07:51.382Z,101097.30
2018-06-09T19:10:19.747Z,101100.64
2018-06-09T19:12:48.133Z,101095.42
2018-06-09T19:15:16.507Z,101099.52
2018-06-09T19:17:44.909Z,101094.64
2018-06-09T19:20:13.282Z,101102.45
2018-06-09T19:22:41.694Z,101102.30
2018-06-09T19:25:10.062Z,101104.42
2018-06-09T19:27:38.419Z,101109.18
2018-06-09T19:30:06.811Z,101107.78
2018-06-09T19:32:35.199Z,101110.31
2018-06-09T19:35:03.587Z,101112.88
2018-06-09T19:37:31.964Z,101120.72
2018-06-09T19:40:00.351Z,101122.77
2018-06-09T19:42:28.715Z,101131.07
2018-06-09T19:44:57.267Z,101129.18
2018-06-09T19:47:25.671Z,101133.55
2018-06-09T19:49:54.057Z,101133.53
2018-06-09T19:52:22.424Z,101136.56
2018-06-09T19:54:50.822Z,101136.16
2018-06-09T19:57:19.202Z,101131.28
2018-06-09T19:59:47.603Z,101136.14
2018-06-09T20:02:16.054Z,101135.27
2018-06-09T20:04:44.436Z,101133.43
2018-06-09T20:07:12.794Z,101133.91
2018-06-09T20:09:41.218Z,101128.45
2018-06-09T20:12:09.588Z,101129.61
2018-06-09T20:14:37.963Z,101133.41
2018-06-09T20:17:06.354Z,101130.23
2018-06-09T20:19:34.715Z,101132.71
2018-06-09T20:22:03.161Z,101132.60
2018-06-09T20:24:31.531Z,101139.51
2018-06-09T20:26:59.918Z,101138.46
2018-06-09T20:29:28.295Z,101132.03
2018-06-09T20:31:56.695Z,101128.87
2018-06-09T20:34:25.067Z,101133.04
2018-06-09T20:36:53.459Z,101137.24
2018-06-09T20:39:21.830Z,101136.58
2018-06-09T20:41:50.217Z,101133.33
2018-06-09T20:44:18.574Z,101137.06
2018-06-09T20:46:46.990Z,101134.67
2018-06-09T20:49:15.367Z,101137.11
2018-06-09T20:51:43.784Z,101143.98
2018-06-09T20:54:12.146Z,101143.27
2018-06-09T20:56:40.532Z,101143.88
2018-06-09T20:59:08.899Z,101141.37
2018-06-09T21:01:37.313Z,101144.63
2018-06-09T21:04:05.724Z,101142.54
2018-06-09T21:06:34.119Z,101139.50
2018-06-09T21:09:02.555Z,101137.02
2018-06-09T21:11:30.959Z,101138.88
2018-06-09T21:13:59.350Z,101137.77
2018-06-09T21:16:27.721Z,101141.97
2018-06-09T21:18:56.133Z,101143.49
2018-06-09T21:21:24.506Z,101137.05
2018-06-09T21:23:52.894Z,101137.24
2018-06-09T21:26:21.253Z,101138.73
2018-06-09T21:28:56.214Z,101134.95
2018-06-09T21:31:29.914Z,101140.47
2018-06-09T21:34:09.497Z,101127.04
2018-06-09T21:36:43.303Z,101128.09
2018-06-09T21:39:15.044Z,101116.41
2018-06-09T21:41:43.616Z,101114.91
2018-06-09T21:44:19.051Z,101116.41
2018-06-09T21:46:49.250Z,101115.27
2018-06-09T21:49:18.008Z,101113.73
2018-06-09T21:51:46.391Z,101109.08
2018-06-09T21:54:14.787Z,101108.39
2018-06-09T21:56:43.260Z,101109.86
2018-06-09T21:59:11.659Z,101109.11
2018-06-09T22:01:40.050Z,101111.86
2018-06-09T22:04:08.441Z,101110.74
2018-06-09T22:06:36.815Z,101113.49
2018-06-09T22:09:06.484Z,101110.16
2018-06-09T22:11:34.891Z,101111.61
2018-06-09T22:14:03.290Z,101106.06
2018-06-09T22:16:31.704Z,101111.08
2018-06-09T22:19:00.102Z,101114.70
2018-06-09T22:21:28.469Z,101118.80
2018-06-09T22:23:56.867Z,101120.64
2018-06-09T22:26:25.247Z,101122.09
2018-06-09T22:28:53.647Z,101112.50
2018-06-09T22:31:22.020Z,101109.51
2018-06-09T22:33:50.418Z,101107.42
2018-06-09T22:36:18.782Z,101112.42
2018-06-09T22:38:47.199Z,101102.50
2018-06-09T22:41:15.569Z,101109.64
2018-06-09T22:43:43.954Z,101107.16
2018-06-09T22:46:12.345Z,101104.63
2018-06-09T22:48:40.717Z,101100.84
2018-06-09T22:51:09.133Z,101094.82
2018-06-09T22:53:38.115Z,101097.56
2018-06-09T22:56:06.521Z,101092.44
2018-06-09T22:58:34.886Z,101088.18
2018-06-09T23:01:03.277Z,101084.31
2018-06-09T23:03:31.663Z,101089.72
2018-06-09T23:06:00.059Z,101087.59
2018-06-09T23:08:28.433Z,101088.64
2018-06-09T23:10:56.817Z,101089.58
2018-06-09T23:13:25.179Z,101083.53
2018-06-09T23:15:53.600Z,101085.80
2018-06-09T23:18:21.962Z,101084.16
2018-06-09T23:20:50.322Z,101088.18
2018-06-09T23:23:18.710Z,101080.86
2018-06-09T23:25:47.079Z,101083.57
2018-06-09T23:28:15.475Z,101088.47
2018-06-09T23:30:43.918Z,101088.13
2018-06-09T23:33:12.271Z,101086.84
2018-06-09T23:35:40.647Z,101088.69
2018-06-09T23:38:09.037Z,101082.13
2018-06-09T23:40:37.398Z,101075.20
2018-06-09T23:43:05.782Z,101073.05
2018-06-09T23:45:34.146Z,101070.48
2018-06-09T23:48:02.536Z,101070.59
2018-06-09T23:50:30.905Z,101071.12
2018-06-09T23:52:59.295Z,101067.69
2018-06-09T23:55:27.709Z,101064.69
2018-06-09T23:57:56.110Z,101068.28
